Time;durP1;ratioP1;P1;durP2;ratioP2;P2;SDS_P1;SDS_P2;PMS_P1;PMS_P2;Temp;Humidity;BMP_temperature;BMP_pressure;BME280_temperature;BME280_humidity;BME280_pressure;Samples;Min_cycle;Max_cycle;Signal;HPM_P1;HPM_P2
2021/06/21 00:00:00;;;;;;;4.30;1.40;;;19.60;99.90;;;;;;5114822;28;20418;-39
2021/06/21 00:02:28;;;;;;;5.03;2.00;;;19.50;99.90;;;;;;5113378;28;20433;-40
2021/06/21 00:04:54;;;;;;;5.63;1.97;;;19.50;99.90;;;;;;5107119;28;20210;-40
2021/06/21 00:07:20;;;;;;;5.20;1.90;;;19.50;99.90;;;;;;5095353;28;20740;-41
2021/06/21 00:09:47;;;;;;;7.57;1.80;;;19.40;99.90;;;;;;5094363;28;20491;-41
2021/06/21 00:12:14;;;;;;;7.30;2.13;;;19.40;99.90;;;;;;5093721;28;20472;-41
2021/06/21 00:14:40;;;;;;;2.77;1.50;;;19.40;99.90;;;;;;5094362;28;20434;-40
2021/06/21 00:17:06;;;;;;;6.43;1.90;;;19.60;99.90;;;;;;5094200;28;20422;-42
2021/06/21 00:19:37;;;;;;;4.53;1.90;;;19.70;99.90;;;;;;5094282;28;20427;-42
2021/06/21 00:22:04;;;;;;;7.77;2.20;;;19.70;99.90;;;;;;5102106;28;20426;-42
2021/06/21 00:24:32;;;;;;;5.40;2.30;;;19.80;99.90;;;;;;5091365;28;20446;-41
2021/06/21 00:26:59;;;;;;;7.10;1.90;;;19.70;99.90;;;;;;5090552;28;20422;-41
2021/06/21 00:29:26;;;;;;;3.90;1.90;;;19.80;99.90;;;;;;5085671;28;20443;-40
2021/06/21 00:31:52;;;;;;;7.17;2.40;;;19.90;99.90;;;;;;5079562;28;20872;-41
2021/06/21 00:34:18;;;;;;;5.00;2.30;;;19.80;99.90;;;;;;5079786;28;20658;-42
2021/06/21 00:36:43;;;;;;;4.30;1.70;;;19.90;99.80;;;;;;5079885;28;20173;-40
2021/06/21 00:39:09;;;;;;;6.00;1.80;;;19.80;99.70;;;;;;5079752;28;20492;-41
2021/06/21 00:41:36;;;;;;;5.77;1.67;;;19.90;99.80;;;;;;5078836;28;20225;-41
2021/06/21 00:44:02;;;;;;;4.83;1.30;;;19.90;99.90;;;;;;5080018;28;20426;-41
2021/06/21 00:46:28;;;;;;;6.17;1.87;;;19.90;99.40;;;;;;5080102;28;20426;-40
2021/06/21 00:48:54;;;;;;;5.93;1.90;;;19.80;99.50;;;;;;5079588;28;20435;-40
2021/06/21 00:51:20;;;;;;;4.93;1.77;;;19.80;99.60;;;;;;5079406;28;20181;-41
2021/06/21 00:53:46;;;;;;;4.60;2.10;;;19.80;99.40;;;;;;5078434;28;20258;-40
2021/06/21 00:56:12;;;;;;;3.40;2.20;;;19.70;99.30;;;;;;5081107;28;20682;-42
2021/06/21 00:58:37;;;;;;;4.97;1.83;;;19.60;99.20;;;;;;5096552;28;20442;-40
2021/06/21 01:01:04;;;;;;;7.00;2.00;;;19.50;99.70;;;;;;5100244;28;20411;-41
2021/06/21 01:03:30;;;;;;;7.10;2.07;;;19.40;99.90;;;;;;5099555;28;20256;-41
2021/06/21 01:05:56;;;;;;;6.73;2.43;;;19.30;99.90;;;;;;5100575;28;20410;-41
2021/06/21 01:08:21;;;;;;;6.43;1.93;;;19.20;99.90;;;;;;5099941;28;20711;-41
2021/06/21 01:10:50;;;;;;;6.63;2.07;;;19.10;99.90;;;;;;5100280;28;20425;-44
2021/06/21 01:13:51;;;;;;;3.80;2.10;;;19.10;99.90;;;;;;5098961;28;20335;-42
2021/06/21 01:16:46;;;;;;;7.87;2.20;;;19.00;99.90;;;;;;5100336;28;20789;-42
2021/06/21 01:19:56;;;;;;;10.10;2.10;;;19.00;99.90;;;;;;5098750;28;20440;-43
2021/06/21 01:22:43;;;;;;;9.37;2.50;;;19.00;99.90;;;;;;5076547;28;20499;-41
2021/06/21 01:25:23;;;;;;;9.17;2.70;;;18.90;99.90;;;;;;5099901;28;20525;-42
2021/06/21 01:27:54;;;;;;;6.67;2.03;;;18.80;99.90;;;;;;5099741;28;20430;-42
2021/06/21 01:30:29;;;;;;;6.07;2.17;;;18.90;99.90;;;;;;5098957;28;20425;-42
2021/06/21 01:33:04;;;;;;;5.53;2.57;;;19.00;99.90;;;;;;5098346;28;20477;-40
2021/06/21 01:35:37;;;;;;;6.93;2.57;;;19.10;99.90;;;;;;5098145;28;20505;-42
2021/06/21 01:38:12;;;;;;;5.00;2.03;;;19.10;99.90;;;;;;5098744;28;20502;-42
2021/06/21 01:40:47;;;;;;;9.47;2.00;;;19.20;99.90;;;;;;5098200;28;20528;-41
2021/06/21 01:43:14;;;;;;;5.00;2.50;;;19.30;99.90;;;;;;5098311;28;20437;-40
2021/06/21 01:45:42;;;;;;;5.60;1.90;;;19.50;99.90;;;;;;5098852;28;20415;-43
2021/06/21 01:48:08;;;;;;;5.73;2.60;;;19.60;99.90;;;;;;5077316;28;20443;-43
2021/06/21 01:50:34;;;;;;;7.00;2.60;;;19.60;99.60;;;;;;5078090;28;20415;-41
2021/06/21 01:53:06;;;;;;;6.40;2.20;;;19.70;99.40;;;;;;5079201;28;20482;-41
2021/06/21 01:55:34;;;;;;;9.13;3.33;;;19.50;99.40;;;;;;5079211;28;20412;-42
2021/06/21 01:58:00;;;;;;;7.80;3.40;;;19.20;99.70;;;;;;5077962;28;20431;-40
2021/06/21 02:00:27;;;;;;;11.03;3.43;;;18.90;99.90;;;;;;5077947;28;20415;-42
2021/06/21 02:02:53;;;;;;;7.33;2.90;;;18.50;99.90;;;;;;5078969;28;20431;-42
2021/06/21 02:05:19;;;;;;;12.10;3.17;;;18.30;99.90;;;;;;5079131;28;20836;-44
2021/06/21 02:07:47;;;;;;;10.10;4.27;;;18.10;99.90;;;;;;5077576;28;20443;-42
2021/06/21 02:10:14;;;;;;;7.67;3.23;;;18.10;99.90;;;;;;5078842;28;20814;-40
2021/06/21 02:12:40;;;;;;;7.20;3.20;;;18.10;99.90;;;;;;5077075;28;20525;-42
2021/06/21 02:15:08;;;;;;;5.47;3.10;;;18.10;99.90;;;;;;5077669;28;20435;-40
2021/06/21 02:17:33;;;;;;;8.80;2.93;;;18.10;99.90;;;;;;5078799;28;20512;-41
2021/06/21 02:20:00;;;;;;;7.20;3.40;;;18.10;99.90;;;;;;5060250;28;20842;-41
2021/06/21 02:22:28;;;;;;;13.13;4.00;;;18.10;99.90;;;;;;5083323;28;20441;-41
2021/06/21 02:24:56;;;;;;;7.20;3.73;;;18.10;99.90;;;;;;5086247;28;20825;-42
2021/06/21 02:27:22;;;;;;;6.50;2.93;;;18.20;99.90;;;;;;5078088;28;20426;-41
2021/06/21 02:29:49;;;;;;;7.20;3.47;;;18.10;99.90;;;;;;5078610;28;20689;-40
2021/06/21 02:32:15;;;;;;;8.20;2.87;;;18.00;99.90;;;;;;5078536;28;20197;-41
2021/06/21 02:34:41;;;;;;;12.20;4.43;;;17.90;99.90;;;;;;5078115;28;20411;-40
2021/06/21 02:37:07;;;;;;;9.77;3.17;;;17.90;99.90;;;;;;5078401;28;20418;-40
2021/06/21 02:39:33;;;;;;;6.23;2.90;;;17.80;99.90;;;;;;5079011;28;20243;-40
2021/06/21 02:41:59;;;;;;;6.73;2.70;;;17.90;99.90;;;;;;5078478;28;20451;-42
2021/06/21 02:44:24;;;;;;;8.13;2.67;;;17.90;99.90;;;;;;5078486;28;20181;-41
2021/06/21 02:46:50;;;;;;;6.77;2.67;;;18.00;99.90;;;;;;5076850;28;20525;-41
2021/06/21 02:49:16;;;;;;;8.17;2.67;;;18.10;99.90;;;;;;5078467;28;20185;-41
2021/06/21 02:51:50;;;;;;;8.23;2.40;;;18.20;99.90;;;;;;5078388;28;20534;-41
2021/06/21 02:54:26;;;;;;;9.83;3.13;;;18.10;99.90;;;;;;5078021;28;20203;-41
2021/06/21 02:57:03;;;;;;;4.50;2.50;;;18.20;99.90;;;;;;5077461;28;20483;-42
2021/06/21 02:59:34;;;;;;;5.93;2.37;;;18.20;99.90;;;;;;5077955;28;20516;-41
2021/06/21 03:02:01;;;;;;;11.20;2.90;;;18.20;99.90;;;;;;5077883;28;20792;-43
2021/06/21 03:04:27;;;;;;;8.07;2.90;;;18.20;99.90;;;;;;5077830;28;20683;-42
2021/06/21 03:06:54;;;;;;;9.70;2.50;;;18.30;99.90;;;;;;5078446;28;20427;-40
2021/06/21 03:09:20;;;;;;;9.47;2.20;;;18.20;99.90;;;;;;5076777;28;20840;-40
2021/06/21 03:11:50;;;;;;;6.73;2.27;;;18.20;99.90;;;;;;5076024;28;20567;-42
2021/06/21 03:14:16;;;;;;;5.53;1.90;;;18.10;99.90;;;;;;5076150;28;20443;-41
2021/06/21 03:16:42;;;;;;;5.93;2.20;;;18.10;99.90;;;;;;5077309;28;20500;-43
2021/06/21 03:19:12;;;;;;;4.60;2.10;;;18.20;99.90;;;;;;5076924;28;20427;-41
2021/06/21 03:21:41;;;;;;;6.57;1.90;;;18.30;99.90;;;;;;5077156;28;20423;-41
2021/06/21 03:24:07;;;;;;;9.70;2.80;;;18.40;99.90;;;;;;5078037;28;20462;-43
2021/06/21 03:26:33;;;;;;;9.10;2.80;;;18.40;99.90;;;;;;5078170;28;20420;-42
2021/06/21 03:28:58;;;;;;;7.33;2.40;;;18.40;99.90;;;;;;5077589;28;20431;-43
2021/06/21 03:31:25;;;;;;;5.20;2.10;;;18.20;99.90;;;;;;5076630;28;20225;-41
2021/06/21 03:33:51;;;;;;;6.47;2.20;;;18.20;99.90;;;;;;5074410;28;20185;-42
2021/06/21 03:36:17;;;;;;;6.47;2.70;;;18.30;99.90;;;;;;5074714;28;20813;-41
2021/06/21 03:38:43;;;;;;;7.60;2.00;;;18.40;99.90;;;;;;5074189;28;20416;-42
2021/06/21 03:41:09;;;;;;;8.83;2.50;;;18.40;99.90;;;;;;5074156;28;20422;-42
2021/06/21 03:43:35;;;;;;;5.90;1.90;;;18.40;99.90;;;;;;5072423;28;20485;-40
2021/06/21 03:46:04;;;;;;;5.93;2.73;;;18.60;99.90;;;;;;5072057;28;20415;-42
2021/06/21 03:48:31;;;;;;;7.67;2.10;;;18.60;99.90;;;;;;5074011;28;20701;-42
2021/06/21 03:50:57;;;;;;;6.90;3.60;;;18.60;99.90;;;;;;5073644;28;20403;-42
2021/06/21 03:53:25;;;;;;;7.47;2.40;;;18.50;99.90;;;;;;5089273;28;20473;-41
2021/06/21 03:55:51;;;;;;;5.60;2.30;;;18.50;99.90;;;;;;5094687;28;20438;-42
2021/06/21 03:58:17;;;;;;;9.53;1.93;;;18.40;99.90;;;;;;5095899;28;20422;-41
2021/06/21 04:00:43;;;;;;;6.00;1.87;;;18.50;99.90;;;;;;5100138;28;20170;-42
2021/06/21 04:03:09;;;;;;;8.07;2.67;;;18.60;99.90;;;;;;5101029;28;20525;-43
2021/06/21 04:05:37;;;;;;;5.47;2.23;;;18.80;99.90;;;;;;5101414;28;20497;-41
2021/06/21 04:08:08;;;;;;;6.77;2.30;;;18.90;99.90;;;;;;5100153;28;20426;-42
2021/06/21 04:10:35;;;;;;;7.70;2.80;;;19.00;99.90;;;;;;5101240;28;20733;-41
2021/06/21 04:13:01;;;;;;;6.73;2.00;;;19.00;99.90;;;;;;5099910;28;20501;-43
2021/06/21 04:15:30;;;;;;;7.90;2.50;;;19.00;99.90;;;;;;5100208;28;20411;-41
2021/06/21 04:17:58;;;;;;;4.60;2.07;;;19.20;99.90;;;;;;5100907;28;20422;-41
2021/06/21 04:20:24;;;;;;;5.10;2.10;;;19.30;99.90;;;;;;5101173;28;20450;-42
2021/06/21 04:22:50;;;;;;;3.63;1.67;;;19.40;99.90;;;;;;5100757;28;20852;-43
2021/06/21 04:25:17;;;;;;;9.43;2.03;;;19.50;99.20;;;;;;5099355;28;20437;-41
2021/06/21 04:27:43;;;;;;;8.80;2.47;;;19.40;99.60;;;;;;5097876;28;20184;-41
2021/06/21 04:30:11;;;;;;;5.77;2.17;;;19.40;99.70;;;;;;5099846;28;20418;-42
2021/06/21 04:32:37;;;;;;;6.10;2.37;;;19.40;99.30;;;;;;5099644;28;20480;-42
2021/06/21 04:35:06;;;;;;;6.40;2.70;;;19.40;99.30;;;;;;5099953;28;20687;-41
2021/06/21 04:37:31;;;;;;;4.80;1.77;;;19.30;99.20;;;;;;5099847;28;20430;-43
2021/06/21 04:39:57;;;;;;;5.00;2.07;;;19.30;99.40;;;;;;5099590;28;20407;-42
2021/06/21 04:42:23;;;;;;;11.30;2.33;;;19.20;99.90;;;;;;5099299;28;20535;-42
2021/06/21 04:44:49;;;;;;;6.00;2.13;;;19.20;99.90;;;;;;5099359;28;20168;-42
2021/06/21 04:47:15;;;;;;;4.93;2.40;;;19.20;99.90;;;;;;5097889;28;20172;-41
2021/06/21 04:49:40;;;;;;;6.83;2.00;;;19.30;99.90;;;;;;5099241;28;20410;-45
2021/06/21 04:52:09;;;;;;;9.23;2.50;;;19.40;99.50;;;;;;5097256;28;20779;-41
2021/06/21 04:54:35;;;;;;;5.27;2.47;;;19.60;99.40;;;;;;5099021;28;20188;-44
2021/06/21 04:57:01;;;;;;;6.00;2.17;;;19.70;99.20;;;;;;5098249;28;20533;-42
2021/06/21 04:59:26;;;;;;;5.63;2.37;;;19.80;98.40;;;;;;5098390;28;20176;-40
2021/06/21 05:01:52;;;;;;;7.53;2.20;;;19.70;99.00;;;;;;5099197;28;20179;-41
2021/06/21 05:04:18;;;;;;;7.70;1.93;;;19.90;99.00;;;;;;5097973;28;20188;-43
2021/06/21 05:06:43;;;;;;;6.20;2.47;;;20.00;98.80;;;;;;5097917;28;20165;-41
2021/06/21 05:09:11;;;;;;;5.87;2.23;;;20.20;98.70;;;;;;5096516;28;20258;-41
2021/06/21 05:11:37;;;;;;;6.30;2.07;;;20.40;98.30;;;;;;5098228;28;20179;-41
2021/06/21 05:14:03;;;;;;;7.23;2.20;;;20.50;97.90;;;;;;5098201;28;20523;-40
2021/06/21 05:16:29;;;;;;;5.37;2.10;;;20.60;97.50;;;;;;5096683;28;20419;-40
2021/06/21 05:18:54;;;;;;;4.17;2.00;;;20.70;97.40;;;;;;5096616;28;20457;-41
2021/06/21 05:21:20;;;;;;;7.83;2.40;;;20.80;97.30;;;;;;5095609;28;20222;-41
2021/06/21 05:23:46;;;;;;;6.43;2.13;;;20.80;97.30;;;;;;5094596;28;20252;-42
2021/06/21 05:26:12;;;;;;;5.50;2.20;;;20.60;97.20;;;;;;5095947;28;20196;-41
2021/06/21 05:28:38;;;;;;;8.27;2.30;;;20.40;97.40;;;;;;5094910;28;20419;-41
2021/06/21 05:31:04;;;;;;;4.13;1.93;;;20.10;98.00;;;;;;5093457;28;20963;-42
2021/06/21 05:33:29;;;;;;;5.80;2.20;;;20.10;98.40;;;;;;5094142;28;20204;-42
2021/06/21 05:35:57;;;;;;;6.60;1.67;;;20.10;98.30;;;;;;5095379;28;20180;-41
2021/06/21 05:38:23;;;;;;;7.20;2.20;;;20.20;98.40;;;;;;5095274;28;20458;-41
2021/06/21 05:40:49;;;;;;;9.53;2.47;;;19.90;98.30;;;;;;5095517;28;20407;-40
2021/06/21 05:43:15;;;;;;;8.13;2.83;;;20.00;99.00;;;;;;5093502;28;20533;-40
2021/06/21 05:45:40;;;;;;;4.20;1.63;;;19.80;98.60;;;;;;5095780;28;20259;-40
2021/06/21 05:48:07;;;;;;;3.50;2.30;;;19.80;98.80;;;;;;5096698;28;20184;-41
2021/06/21 05:50:33;;;;;;;6.60;2.37;;;19.90;99.30;;;;;;5096164;28;20184;-42
2021/06/21 05:52:59;;;;;;;7.57;2.10;;;20.10;99.30;;;;;;5095062;28;20501;-41
2021/06/21 05:55:25;;;;;;;5.40;2.30;;;20.30;98.80;;;;;;5094142;28;20402;-42
2021/06/21 05:57:54;;;;;;;5.67;2.07;;;20.60;98.20;;;;;;5095809;28;20168;-40
2021/06/21 06:00:22;;;;;;;6.27;2.40;;;20.70;97.50;;;;;;5094353;28;20164;-41
2021/06/21 06:02:48;;;;;;;4.80;2.27;;;20.70;97.30;;;;;;5095885;28;20418;-44
2021/06/21 06:05:14;;;;;;;5.77;2.80;;;20.80;97.80;;;;;;5095679;28;20413;-41
2021/06/21 06:07:40;;;;;;;4.23;1.93;;;21.00;97.50;;;;;;5097085;28;20422;-47
2021/06/21 06:10:07;;;;;;;7.37;2.43;;;21.00;96.70;;;;;;5096514;28;20558;-41
2021/06/21 06:12:33;;;;;;;4.23;1.73;;;21.10;96.70;;;;;;5097061;28;20234;-41
2021/06/21 06:14:59;;;;;;;4.20;1.97;;;21.20;96.70;;;;;;5097123;28;20406;-41
2021/06/21 06:17:24;;;;;;;7.67;2.67;;;21.20;96.10;;;;;;5097561;28;20864;-42
2021/06/21 06:19:50;;;;;;;7.63;2.40;;;20.90;96.20;;;;;;5098380;28;20187;-40
2021/06/21 06:22:16;;;;;;;6.00;2.37;;;21.00;97.00;;;;;;5096738;28;20835;-41
2021/06/21 06:24:42;;;;;;;5.67;2.10;;;21.10;96.30;;;;;;5095521;28;20176;-44
2021/06/21 06:27:08;;;;;;;5.70;1.93;;;21.30;96.50;;;;;;5096921;28;20510;-40
2021/06/21 06:29:34;;;;;;;7.03;2.30;;;21.50;95.90;;;;;;5097374;28;20480;-41
2021/06/21 06:32:00;;;;;;;11.70;3.33;;;21.40;95.30;;;;;;5096246;28;20780;-43
2021/06/21 06:34:27;;;;;;;4.30;2.17;;;21.10;96.20;;;;;;5095512;28;20698;-43
2021/06/21 06:36:53;;;;;;;10.80;2.47;;;21.10;96.50;;;;;;5094157;28;20489;-41
2021/06/21 06:39:20;;;;;;;4.60;1.83;;;20.90;96.60;;;;;;5093569;28;20774;-42
2021/06/21 06:41:46;;;;;;;8.73;2.37;;;21.00;97.40;;;;;;5094875;28;20442;-42
2021/06/21 06:44:12;;;;;;;4.70;1.83;;;21.20;96.40;;;;;;5092400;28;20430;-43
2021/06/21 06:46:38;;;;;;;4.17;2.00;;;21.20;95.70;;;;;;5092937;28;20414;-41
2021/06/21 06:49:03;;;;;;;5.20;1.80;;;21.10;96.10;;;;;;5094260;28;20249;-41
2021/06/21 06:51:34;;;;;;;5.13;1.83;;;20.90;96.20;;;;;;5095806;28;20176;-43
2021/06/21 06:59:38;;;;;;;8.17;2.37;;;21.50;95.00;;;;;;5035269;28;20735;-42
2021/06/21 07:02:09;;;;;;;8.33;3.17;;;21.50;95.70;;;;;;5035018;28;20424;-41
2021/06/21 07:04:36;;;;;;;7.60;3.00;;;21.70;95.40;;;;;;5066417;28;20760;-42
2021/06/21 07:07:02;;;;;;;8.20;2.20;;;21.80;95.20;;;;;;5097647;28;20414;-42
2021/06/21 07:09:29;;;;;;;3.63;1.70;;;22.10;95.50;;;;;;5096719;28;20438;-41
2021/06/21 07:11:55;;;;;;;7.07;2.53;;;22.10;94.90;;;;;;5095708;28;20477;-43
2021/06/21 07:14:21;;;;;;;3.50;1.70;;;22.20;94.10;;;;;;5095908;28;20726;-42
2021/06/21 07:16:48;;;;;;;4.67;1.90;;;22.40;93.30;;;;;;5095030;28;20438;-42
2021/06/21 07:19:15;;;;;;;6.07;2.27;;;22.30;93.60;;;;;;5096404;28;20479;-43
2021/06/21 07:21:41;;;;;;;6.70;1.90;;;22.40;93.80;;;;;;5095931;28;20399;-42
2021/06/21 07:24:08;;;;;;;8.27;2.43;;;22.40;93.70;;;;;;5095206;28;20429;-42
2021/06/21 07:26:34;;;;;;;3.73;1.70;;;22.40;93.50;;;;;;5096346;28;20423;-41
2021/06/21 07:29:00;;;;;;;4.80;1.70;;;22.50;93.90;;;;;;5096095;28;20707;-42
2021/06/21 07:31:26;;;;;;;3.80;1.60;;;23.00;93.20;;;;;;5093529;28;20773;-43
2021/06/21 07:33:52;;;;;;;3.90;1.80;;;22.70;92.60;;;;;;5095356;28;20554;-42
2021/06/21 07:36:18;;;;;;;3.93;2.00;;;22.90;92.60;;;;;;5080890;28;20267;-43
2021/06/21 07:38:44;;;;;;;5.90;2.40;;;23.00;93.20;;;;;;5096975;28;20747;-41
2021/06/21 07:41:10;;;;;;;3.47;1.90;;;22.70;92.50;;;;;;5097449;28;20439;-42
2021/06/21 07:43:35;;;;;;;5.23;1.77;;;23.00;91.70;;;;;;5097016;28;20200;-41
2021/06/21 07:46:03;;;;;;;5.43;1.80;;;23.00;91.70;;;;;;5098490;28;20497;-42
2021/06/21 07:48:29;;;;;;;5.50;2.10;;;22.40;92.60;;;;;;5097948;28;20818;-41
2021/06/21 07:50:55;;;;;;;4.03;1.83;;;22.40;92.30;;;;;;5080833;28;20433;-42
2021/06/21 07:53:20;;;;;;;4.57;2.70;;;22.80;92.70;;;;;;5099058;28;20529;-43
2021/06/21 07:55:49;;;;;;;4.40;2.00;;;23.00;92.00;;;;;;5099452;28;20610;-42
2021/06/21 07:58:15;;;;;;;4.13;2.33;;;23.40;92.00;;;;;;5099502;28;20176;-43
2021/06/21 08:00:40;;;;;;;3.07;1.77;;;23.30;91.90;;;;;;5100482;28;20406;-43
2021/06/21 08:03:10;;;;;;;8.70;2.33;;;23.20;91.80;;;;;;5100605;28;20241;-42
2021/06/21 08:05:37;;;;;;;5.10;2.20;;;23.20;92.10;;;;;;5098595;28;20411;-41
2021/06/21 08:08:04;;;;;;;5.40;1.80;;;23.80;91.60;;;;;;5100071;28;20429;-43
2021/06/21 08:10:29;;;;;;;4.83;1.80;;;24.60;90.70;;;;;;5100645;28;20467;-43
2021/06/21 08:12:55;;;;;;;5.80;2.53;;;24.80;89.50;;;;;;5094753;28;20482;-42
2021/06/21 08:15:21;;;;;;;2.87;1.93;;;24.10;89.60;;;;;;5080048;28;20173;-42
2021/06/21 08:17:46;;;;;;;5.80;2.03;;;24.00;90.80;;;;;;5079185;28;20186;-43
2021/06/21 08:20:13;;;;;;;5.57;2.27;;;23.90;90.70;;;;;;5079197;28;20492;-42
2021/06/21 08:22:39;;;;;;;3.63;1.57;;;23.50;90.30;;;;;;5078550;28;20463;-41
2021/06/21 08:25:07;;;;;;;4.53;1.60;;;23.30;90.70;;;;;;5080673;28;20407;-42
2021/06/21 08:27:33;;;;;;;4.23;2.27;;;23.50;90.90;;;;;;5079133;28;20423;-41
2021/06/21 08:29:59;;;;;;;6.33;2.43;;;23.70;90.30;;;;;;5078421;28;20814;-42
2021/06/21 08:32:26;;;;;;;3.30;2.03;;;23.90;89.80;;;;;;5059199;28;20872;-43
2021/06/21 08:34:51;;;;;;;5.47;1.90;;;24.10;89.20;;;;;;5076194;28;20420;-43
2021/06/21 08:37:18;;;;;;;6.07;1.90;;;24.50;88.00;;;;;;5076151;28;20719;-42
2021/06/21 08:39:44;;;;;;;4.40;1.80;;;24.30;87.60;;;;;;5076617;28;20268;-43
2021/06/21 08:42:10;;;;;;;3.80;2.10;;;24.80;88.40;;;;;;5076918;28;20503;-43
2021/06/21 08:44:37;;;;;;;6.53;2.97;;;25.30;86.10;;;;;;5077214;28;20206;-44
2021/06/21 08:47:04;;;;;;;4.80;1.90;;;24.70;85.70;;;;;;5077833;28;20447;-42
2021/06/21 08:49:33;;;;;;;8.20;2.50;;;24.70;86.00;;;;;;5076862;28;20431;-42
2021/06/21 08:52:01;;;;;;;3.90;1.90;;;24.90;86.20;;;;;;5078640;28;20455;-42
2021/06/21 08:54:27;;;;;;;4.73;2.23;;;25.20;86.70;;;;;;5079565;28;20546;-42
2021/06/21 08:56:57;;;;;;;5.23;1.70;;;25.10;86.50;;;;;;5077697;28;20490;-42
2021/06/21 08:59:23;;;;;;;5.40;2.63;;;25.70;84.90;;;;;;5078879;28;20439;-43
2021/06/21 09:01:49;;;;;;;4.93;2.00;;;25.60;82.80;;;;;;5079700;28;20702;-44
2021/06/21 09:04:15;;;;;;;4.70;2.17;;;25.60;84.80;;;;;;5079396;28;20430;-44
2021/06/21 09:06:43;;;;;;;5.13;2.53;;;26.10;84.00;;;;;;5079412;28;20169;-41
2021/06/21 09:09:08;;;;;;;3.93;1.93;;;25.50;83.00;;;;;;5080042;28;20428;-41
2021/06/21 09:11:47;;;;;;;5.30;1.67;;;25.70;83.20;;;;;;5079358;28;20477;-43
2021/06/21 09:14:25;;;;;;;3.57;1.93;;;25.50;83.80;;;;;;5075816;28;20224;-43
2021/06/21 09:16:55;;;;;;;5.17;2.33;;;26.20;83.10;;;;;;5079441;28;20407;-42
2021/06/21 09:19:21;;;;;;;7.43;2.97;;;26.70;79.60;;;;;;5078807;28;20423;-43
2021/06/21 09:21:47;;;;;;;7.83;3.07;;;26.20;81.60;;;;;;5078021;28;20518;-40
2021/06/21 09:24:23;;;;;;;7.67;3.33;;;26.20;81.60;;;;;;5077868;28;20502;-41
2021/06/21 09:26:54;;;;;;;4.80;2.00;;;26.60;81.70;;;;;;5074265;28;20172;-40
2021/06/21 09:29:40;;;;;;;7.17;2.50;;;26.10;79.60;;;;;;5077239;28;20427;-39
2021/06/21 09:32:07;;;;;;;4.80;2.70;;;25.70;80.80;;;;;;5075082;28;20463;-42
2021/06/21 09:34:33;;;;;;;2.90;2.10;;;25.50;81.00;;;;;;5077229;28;20484;-39
2021/06/21 09:37:08;;;;;;;5.73;2.97;;;25.60;81.60;;;;;;5075601;28;20416;-39
2021/06/21 09:39:36;;;;;;;5.93;1.80;;;26.20;81.10;;;;;;5075927;28;20415;-40
2021/06/21 09:42:23;;;;;;;3.83;2.10;;;25.90;77.80;;;;;;5076123;28;20414;-36
2021/06/21 09:45:02;;;;;;;4.70;1.90;;;25.50;79.60;;;;;;5076110;28;20430;-41
2021/06/21 09:47:38;;;;;;;6.63;2.33;;;25.50;79.40;;;;;;5075830;28;20564;-40
2021/06/21 09:50:18;;;;;;;4.77;2.13;;;26.00;79.70;;;;;;5075540;28;20411;-41
2021/06/21 09:52:59;;;;;;;3.00;2.13;;;26.20;78.60;;;;;;5075991;28;20478;-41
2021/06/21 09:55:29;;;;;;;3.10;1.90;;;26.50;78.60;;;;;;5075469;28;20403;-42
2021/06/21 09:58:08;;;;;;;3.23;2.00;;;26.50;75.80;;;;;;5076244;28;20427;-43
2021/06/21 10:00:36;;;;;;;3.40;2.00;;;26.50;73.40;;;;;;5077421;28;20423;-44
2021/06/21 10:03:28;;;;;;;2.80;1.80;;;26.20;74.50;;;;;;5077439;28;20427;-42
2021/06/21 10:06:13;;;;;;;5.20;2.27;;;26.20;73.80;;;;;;5074697;28;20426;-42
2021/06/21 10:08:46;;;;;;;2.20;1.67;;;26.30;75.10;;;;;;5077016;28;20443;-43
2021/06/21 10:11:28;;;;;;;4.33;1.90;;;26.40;74.70;;;;;;5077596;28;20415;-41
2021/06/21 10:13:55;;;;;;;3.03;1.50;;;26.20;74.40;;;;;;5076925;28;20491;-42
2021/06/21 10:16:21;;;;;;;3.10;1.93;;;26.50;74.40;;;;;;5077690;28;20476;-44
2021/06/21 10:18:47;;;;;;;3.03;2.00;;;27.00;74.20;;;;;;5075789;28;20431;-42
2021/06/21 10:21:13;;;;;;;9.63;2.27;;;27.50;71.20;;;;;;5076051;28;20165;-42
2021/06/21 10:23:38;;;;;;;2.87;2.33;;;27.60;72.00;;;;;;5078601;28;20457;-41
2021/06/21 10:26:04;;;;;;;3.73;2.77;;;27.30;70.90;;;;;;5094771;28;20183;-43
2021/06/21 10:28:30;;;;;;;3.90;1.87;;;27.10;73.10;;;;;;5096047;28;20188;-40
2021/06/21 10:30:56;;;;;;;2.93;1.97;;;27.50;70.90;;;;;;5096457;28;20418;-42
2021/06/21 10:33:22;;;;;;;3.03;1.90;;;27.70;70.70;;;;;;5097710;28;20478;-41
2021/06/21 10:35:48;;;;;;;4.17;2.10;;;28.00;69.60;;;;;;5097460;28;20331;-42
2021/06/21 10:38:16;;;;;;;5.13;2.00;;;27.70;70.10;;;;;;5096675;28;20414;-44
2021/06/21 10:40:56;;;;;;;3.80;2.30;;;28.30;70.10;;;;;;5097409;28;20236;-43
2021/06/21 10:43:40;;;;;;;4.77;2.37;;;28.70;67.10;;;;;;5078123;28;20433;-43
2021/06/21 10:46:23;;;;;;;3.53;1.70;;;28.30;66.10;;;;;;5096362;28;20390;-41
2021/06/21 10:49:06;;;;;;;5.73;1.90;;;28.40;66.60;;;;;;5094561;28;20422;-42
2021/06/21 10:51:37;;;;;;;4.93;2.20;;;28.90;66.90;;;;;;5096811;28;20483;-41
2021/06/21 10:54:05;;;;;;;4.63;1.80;;;28.80;61.90;;;;;;5097107;28;20426;-41
2021/06/21 10:56:45;;;;;;;2.73;2.03;;;28.40;62.30;;;;;;5095984;28;20835;-42
2021/06/21 10:59:15;;;;;;;2.87;2.10;;;27.20;66.30;;;;;;5087050;28;20426;-42
2021/06/21 11:01:46;;;;;;;3.43;2.07;;;27.60;66.50;;;;;;5076002;28;20469;-42
2021/06/21 11:04:32;;;;;;;4.00;2.00;;;28.00;66.80;;;;;;5076320;28;20447;-41
2021/06/21 11:07:19;;;;;;;3.10;2.17;;;28.60;65.00;;;;;;5075877;28;20378;-41
2021/06/21 11:09:50;;;;;;;3.90;2.17;;;28.80;65.00;;;;;;5077271;28;20682;-41
2021/06/21 11:12:22;;;;;;;2.50;1.80;;;29.30;65.20;;;;;;5076098;28;20462;-44
2021/06/21 11:15:03;;;;;;;3.43;2.00;;;29.80;64.20;;;;;;5076152;28;20798;-42
2021/06/21 11:17:31;;;;;;;2.60;1.60;;;29.70;61.80;;;;;;5074424;28;20395;-42
2021/06/21 11:19:58;;;;;;;2.60;1.60;;;29.60;60.50;;;;;;5075826;28;20449;-41
2021/06/21 11:22:43;;;;;;;8.73;2.23;;;29.90;61.70;;;;;;5077021;28;20517;-42
2021/06/21 11:25:26;;;;;;;2.80;2.53;;;30.40;58.80;;;;;;5076039;28;20544;-43
2021/06/21 11:27:52;;;;;;;3.67;1.70;;;29.50;59.20;;;;;;5073282;28;20722;-43
2021/06/21 11:30:40;;;;;;;5.03;2.33;;;29.70;61.40;;;;;;5074632;28;20484;-42
2021/06/21 11:33:12;;;;;;;2.53;1.87;;;29.80;58.00;;;;;;5074273;28;20503;-41
2021/06/21 11:35:52;;;;;;;3.53;2.57;;;30.20;60.10;;;;;;5070957;28;20382;-43
2021/06/21 11:38:21;;;;;;;3.60;2.30;;;30.60;59.70;;;;;;5073226;28;20494;-42
2021/06/21 11:40:47;;;;;;;2.77;2.00;;;30.70;57.80;;;;;;5073155;28;20390;-43
2021/06/21 11:43:15;;;;;;;4.00;2.50;;;30.40;58.10;;;;;;5072525;28;20398;-42
2021/06/21 11:45:58;;;;;;;3.80;2.67;;;30.30;58.10;;;;;;5072205;28;20177;-42
2021/06/21 11:48:35;;;;;;;2.90;2.50;;;30.80;58.10;;;;;;5070605;28;20415;-40
2021/06/21 11:51:16;;;;;;;2.27;2.03;;;30.60;55.90;;;;;;5071231;28;20587;-43
2021/06/21 11:53:46;;;;;;;3.97;2.37;;;30.40;57.10;;;;;;5071927;28;20470;-40
2021/06/21 11:56:13;;;;;;;5.03;2.10;;;31.00;58.30;;;;;;5071770;28;20398;-42
2021/06/21 11:58:39;;;;;;;2.50;2.20;;;31.80;55.50;;;;;;5074448;28;20419;-42
2021/06/21 12:01:17;;;;;;;4.03;2.47;;;32.50;53.70;;;;;;5075288;28;20427;-43
2021/06/21 12:03:44;;;;;;;3.13;1.93;;;32.80;51.80;;;;;;5075024;28;20436;-42
2021/06/21 12:06:17;;;;;;;3.53;1.97;;;32.80;51.90;;;;;;5075602;28;20407;-44
2021/06/21 12:08:44;;;;;;;3.33;2.20;;;33.20;52.10;;;;;;5073562;28;20725;-42
2021/06/21 12:11:39;;;;;;;5.20;1.93;;;33.30;51.10;;;;;;5074194;28;20416;-41
2021/06/21 12:14:06;;;;;;;4.20;2.40;;;32.30;49.80;;;;;;5073907;28;20491;-43
2021/06/21 12:16:35;;;;;;;2.50;1.60;;;32.80;50.90;;;;;;5075813;28;20415;-44
2021/06/21 12:19:02;;;;;;;3.10;2.07;;;33.70;50.40;;;;;;5075710;28;20649;-42
2021/06/21 12:21:33;;;;;;;2.50;2.10;;;34.30;49.40;;;;;;5078625;28;20420;-41
2021/06/21 12:24:23;;;;;;;3.37;2.10;;;34.60;49.60;;;;;;5079876;28;20427;-41
2021/06/21 12:27:11;;;;;;;3.60;2.00;;;35.00;48.80;;;;;;5078612;28;20407;-42
2021/06/21 12:29:40;;;;;;;2.43;1.70;;;34.40;46.80;;;;;;5077006;28;20435;-43
2021/06/21 12:32:14;;;;;;;3.70;2.13;;;34.40;48.10;;;;;;5077739;28;20719;-43
2021/06/21 12:34:44;;;;;;;4.67;2.23;;;34.10;48.30;;;;;;5078594;28;20554;-43
2021/06/21 12:37:22;;;;;;;2.97;1.90;;;33.70;46.70;;;;;;5079546;28;20390;-43
2021/06/21 12:39:51;;;;;;;2.77;2.00;;;33.00;46.30;;;;;;5078338;28;20390;-42
2021/06/21 12:42:18;;;;;;;3.20;1.87;;;33.10;47.20;;;;;;5078478;28;20378;-42
2021/06/21 12:44:46;;;;;;;3.20;2.10;;;33.90;47.80;;;;;;5079300;28;20815;-41
2021/06/21 12:47:20;;;;;;;2.97;1.90;;;34.20;46.90;;;;;;5078468;28;20417;-42
2021/06/21 12:49:46;;;;;;;2.90;1.80;;;35.00;45.60;;;;;;5080545;28;20382;-41
2021/06/21 12:52:13;;;;;;;2.70;2.40;;;35.30;45.60;;;;;;5077612;28;20437;-43
2021/06/21 12:54:39;;;;;;;2.70;2.10;;;34.90;48.90;;;;;;5077619;28;20706;-43
2021/06/21 12:57:05;;;;;;;3.53;2.50;;;34.70;47.70;;;;;;5077778;28;20446;-43
2021/06/21 12:59:41;;;;;;;3.53;2.10;;;34.60;45.70;;;;;;5083975;28;20484;-42